Time;durP1;ratioP1;P1;durP2;ratioP2;P2;SDS_P1;SDS_P2;PMS_P1;PMS_P2;Temp;Humidity;BMP_temperature;BMP_pressure;BME280_temperature;BME280_humidity;BME280_pressure;Samples;Min_cycle;Max_cycle;Signal;HPM_P1;HPM_P2
2021/04/05 00:00:22;;;;;;;15.67;9.30;;;6.50;1.00;;;;;;5070786;28;20181;-58
2021/04/05 00:02:48;;;;;;;13.23;8.57;;;6.50;1.00;;;;;;5066190;28;20671;-58
2021/04/05 00:05:23;;;;;;;35.10;15.97;;;6.60;1.00;;;;;;5067670;28;20441;-59
2021/04/05 00:07:49;;;;;;;17.73;9.60;;;6.60;1.00;;;;;;5069357;28;20510;-59
2021/04/05 00:10:26;;;;;;;9.17;7.57;;;6.60;1.00;;;;;;5068219;28;20490;-59
2021/04/05 00:12:55;;;;;;;20.27;8.80;;;6.60;1.00;;;;;;5069268;28;20476;-58
2021/04/05 00:15:21;;;;;;;11.60;6.97;;;6.60;1.00;;;;;;5062674;28;20950;-59
2021/04/05 00:17:47;;;;;;;12.40;8.20;;;6.50;1.00;;;;;;5068274;28;20536;-60
2021/04/05 00:20:15;;;;;;;13.13;7.70;;;6.50;1.00;;;;;;5068983;28;20957;-59
2021/04/05 00:22:45;;;;;;;14.30;9.00;;;6.50;1.00;;;;;;5068428;28;20441;-59
2021/04/05 00:25:11;;;;;;;11.60;7.93;;;6.50;1.00;;;;;;5067432;28;20977;-59
2021/04/05 00:27:37;;;;;;;13.87;7.63;;;6.50;1.00;;;;;;5067451;28;20540;-59
2021/04/05 00:30:08;;;;;;;18.60;8.97;;;6.40;1.00;;;;;;5068173;28;20448;-59
2021/04/05 00:32:34;;;;;;;13.00;8.67;;;6.40;1.00;;;;;;5066949;28;20446;-60
2021/04/05 00:35:00;;;;;;;14.93;9.57;;;6.40;1.00;;;;;;5068571;28;20907;-61
2021/04/05 00:37:25;;;;;;;15.97;9.70;;;6.40;1.00;;;;;;5068857;28;20706;-60
2021/04/05 00:39:51;;;;;;;16.20;9.33;;;6.40;1.00;;;;;;5074343;28;20262;-59
2021/04/05 00:42:18;;;;;;;16.53;9.87;;;6.30;1.00;;;;;;5068398;28;20233;-59
2021/04/05 00:44:44;;;;;;;12.67;9.43;;;6.30;1.00;;;;;;5075084;28;20201;-60
2021/04/05 00:47:09;;;;;;;19.00;9.60;;;6.30;1.00;;;;;;5068658;28;20458;-60
2021/04/05 00:49:35;;;;;;;14.83;8.87;;;6.30;1.00;;;;;;5073957;28;20449;-60
2021/04/05 00:52:03;;;;;;;13.90;9.50;;;6.30;1.00;;;;;;5068035;28;20667;-61
2021/04/05 00:54:29;;;;;;;16.17;9.00;;;6.20;1.00;;;;;;5068602;28;20184;-60
2021/04/05 00:56:55;;;;;;;13.33;9.27;;;6.30;1.00;;;;;;5067167;28;20481;-60
2021/04/05 00:59:20;;;;;;;15.00;9.43;;;6.40;1.00;;;;;;5065542;28;20270;-61
2021/04/05 01:01:46;;;;;;;17.70;9.67;;;6.30;1.00;;;;;;5068278;28;20270;-60
2021/04/05 01:04:11;;;;;;;18.83;9.70;;;6.30;1.00;;;;;;5068008;28;20206;-60
2021/04/05 01:06:38;;;;;;;16.13;9.83;;;6.20;1.00;;;;;;5069371;28;20207;-60
2021/04/05 01:09:05;;;;;;;16.77;9.63;;;6.20;1.00;;;;;;5066497;28;20187;-59
2021/04/05 01:11:31;;;;;;;20.37;10.37;;;6.20;1.00;;;;;;5067033;28;20449;-59
2021/04/05 01:13:58;;;;;;;12.67;9.07;;;6.20;1.00;;;;;;5068054;28;20855;-60
2021/04/05 01:16:28;;;;;;;16.33;10.17;;;6.20;1.00;;;;;;5063510;28;20456;-60
2021/04/05 01:18:54;;;;;;;13.57;8.50;;;6.20;1.00;;;;;;5067644;28;20492;-60
2021/04/05 01:21:21;;;;;;;12.10;8.13;;;6.20;1.00;;;;;;5067790;28;20433;-61
2021/04/05 01:23:47;;;;;;;13.07;8.40;;;;;;;;;;5066756;28;20488;-59
2021/04/05 01:26:14;;;;;;;21.63;9.07;;;6.30;1.00;;;;;;5068303;28;20501;-59
2021/04/05 01:28:40;;;;;;;13.60;8.30;;;6.30;1.00;;;;;;5065995;28;20442;-60
2021/04/05 01:31:06;;;;;;;14.63;9.00;;;;;;;;;;5068516;28;20448;-59
2021/04/05 01:33:40;;;;;;;13.90;8.63;;;6.30;1.00;;;;;;5069302;28;20913;-58
2021/04/05 01:36:09;;;;;;;14.23;8.17;;;6.30;1.00;;;;;;5065897;28;21007;-60
2021/04/05 01:38:37;;;;;;;12.17;7.97;;;6.20;1.00;;;;;;5068091;28;20544;-60
2021/04/05 01:41:08;;;;;;;15.07;8.20;;;6.20;1.00;;;;;;5070127;28;20453;-59
2021/04/05 01:43:34;;;;;;;12.00;7.77;;;6.10;1.00;;;;;;5069135;28;20579;-60
2021/04/05 01:46:01;;;;;;;11.93;7.63;;;6.10;1.00;;;;;;5072371;28;20465;-60
2021/04/05 01:48:29;;;;;;;17.23;7.57;;;6.10;1.00;;;;;;5069801;28;21223;-59
2021/04/05 01:51:03;;;;;;;10.87;7.77;;;6.10;1.00;;;;;;5071033;28;20523;-61
2021/04/05 01:53:28;;;;;;;16.73;8.77;;;6.10;1.00;;;;;;5069842;28;20481;-59
2021/04/05 01:56:01;;;;;;;12.13;8.57;;;6.00;1.00;;;;;;5069930;28;20543;-60
2021/04/05 01:58:27;;;;;;;15.00;8.50;;;6.00;1.00;;;;;;5070909;28;20194;-60
2021/04/05 02:00:54;;;;;;;13.13;9.13;;;5.90;1.00;;;;;;5068153;28;20453;-59
2021/04/05 02:03:20;;;;;;;16.33;8.23;;;5.90;1.00;;;;;;5069745;28;20865;-61
2021/04/05 02:05:56;;;;;;;15.40;8.37;;;5.90;1.00;;;;;;5071234;28;20461;-61
2021/04/05 02:08:23;;;;;;;20.17;9.80;;;6.00;1.00;;;;;;5068327;28;20445;-60
2021/04/05 02:10:50;;;;;;;17.50;7.70;;;6.00;1.00;;;;;;5070560;28;20969;-59
2021/04/05 02:13:19;;;;;;;13.73;7.63;;;6.60;1.00;;;;;;5070297;28;20974;-60
2021/04/05 02:15:46;;;;;;;11.13;7.40;;;6.10;1.00;;;;;;5077636;28;20946;-59
2021/04/05 02:18:12;;;;;;;16.13;8.60;;;6.10;1.00;;;;;;5067129;28;20457;-59
2021/04/05 02:20:39;;;;;;;13.33;7.40;;;6.10;1.00;;;;;;5070350;28;20745;-60
2021/04/05 02:23:05;;;;;;;13.63;8.40;;;6.10;1.00;;;;;;5070299;28;20441;-59
2021/04/05 02:25:31;;;;;;;10.97;7.80;;;6.00;1.00;;;;;;5068704;28;21050;-61
2021/04/05 02:27:57;;;;;;;16.07;6.73;;;6.10;1.00;;;;;;5071455;28;20528;-60
2021/04/05 02:30:26;;;;;;;11.03;7.97;;;6.00;1.00;;;;;;5065962;28;20441;-59
2021/04/05 02:32:56;;;;;;;11.93;8.03;;;6.10;1.00;;;;;;5069599;28;20449;-60
2021/04/05 02:35:28;;;;;;;15.30;7.93;;;6.10;1.00;;;;;;5068575;28;20453;-60
2021/04/05 02:37:57;;;;;;;15.70;8.30;;;6.10;1.00;;;;;;5053264;28;20456;-60
2021/04/05 02:40:24;;;;;;;18.20;7.27;;;6.20;1.00;;;;;;5069743;28;20803;-60
2021/04/05 02:42:51;;;;;;;14.83;8.60;;;6.20;1.00;;;;;;5067845;28;20895;-59
2021/04/05 02:45:18;;;;;;;12.67;7.30;;;6.30;1.00;;;;;;5071338;28;20446;-60
2021/04/05 02:47:47;;;;;;;11.73;7.80;;;6.30;1.00;;;;;;5066117;28;20454;-59
2021/04/05 02:50:13;;;;;;;14.20;8.60;;;6.30;1.00;;;;;;5066764;28;20569;-59
2021/04/05 02:52:40;;;;;;;16.30;7.20;;;;;;;;;;5069040;28;20453;-60
2021/04/05 02:55:09;;;;;;;12.47;8.13;;;6.30;1.00;;;;;;5070031;28;20437;-60
2021/04/05 02:57:36;;;;;;;14.37;7.43;;;6.40;1.00;;;;;;5071029;28;20874;-61
2021/04/05 03:00:08;;;;;;;14.47;7.90;;;6.50;1.00;;;;;;5069299;28;20450;-60
2021/04/05 03:02:34;;;;;;;13.27;8.07;;;6.50;1.00;;;;;;5070300;28;20460;-60
2021/04/05 03:05:00;;;;;;;13.50;8.63;;;6.50;1.00;;;;;;5065289;28;20446;-61
2021/04/05 03:07:26;;;;;;;10.20;6.70;;;6.50;1.00;;;;;;5069569;28;20488;-60
2021/04/05 03:09:52;;;;;;;12.00;7.67;;;6.50;1.00;;;;;;5069327;28;20815;-60
2021/04/05 03:12:18;;;;;;;13.37;8.30;;;6.50;1.00;;;;;;5067864;28;20179;-61
2021/04/05 03:14:44;;;;;;;13.70;8.10;;;6.60;1.00;;;;;;5066799;28;20726;-59
2021/04/05 03:17:10;;;;;;;15.77;7.70;;;6.60;1.00;;;;;;5068930;28;20449;-60
2021/04/05 03:19:39;;;;;;;15.47;7.53;;;6.60;1.00;;;;;;5068286;28;20219;-59
2021/04/05 03:22:04;;;;;;;12.30;7.90;;;6.60;1.00;;;;;;5068335;28;20819;-61
2021/04/05 03:24:30;;;;;;;14.27;8.27;;;6.50;1.00;;;;;;5069500;28;20453;-60
2021/04/05 03:26:56;;;;;;;14.40;7.23;;;6.50;1.00;;;;;;5068651;28;20250;-60
2021/04/05 03:29:25;;;;;;;12.67;7.03;;;6.50;1.00;;;;;;5070140;28;20188;-60
2021/04/05 03:31:52;;;;;;;14.83;7.90;;;6.40;1.00;;;;;;5069153;28;20190;-59
2021/04/05 03:34:26;;;;;;;11.60;7.50;;;6.40;1.00;;;;;;5066517;28;20441;-61
2021/04/05 03:37:16;;;;;;;9.47;7.07;;;6.40;1.00;;;;;;5067678;28;20934;-61
2021/04/05 03:39:41;;;;;;;12.50;6.80;;;6.40;1.00;;;;;;5066493;28;20454;-60
2021/04/05 03:42:36;;;;;;;12.73;7.20;;;6.40;1.00;;;;;;5067072;28;21693;-59
2021/04/05 03:45:07;;;;;;;15.80;8.17;;;6.20;1.00;;;;;;5076935;28;20182;-55
2021/04/05 03:48:11;;;;;;;13.67;7.23;;;6.20;1.00;;;;;;5075299;28;20468;-54
2021/04/05 03:50:49;;;;;;;13.63;8.47;;;6.20;1.00;;;;;;5057965;28;20484;-56
2021/04/05 03:53:28;;;;;;;10.50;7.00;;;6.20;1.00;;;;;;5084012;28;20790;-57
2021/04/05 03:55:58;;;;;;;15.43;7.60;;;7.80;1.00;;;;;;5078866;28;20448;-57
2021/04/05 03:58:28;;;;;;;13.13;6.80;;;6.20;1.00;;;;;;5076899;28;20457;-54
2021/04/05 04:00:59;;;;;;;15.33;7.93;;;6.20;1.00;;;;;;5075563;28;20452;-55
2021/04/05 04:03:35;;;;;;;9.00;7.20;;;6.20;1.00;;;;;;5077486;28;20456;-55
2021/04/05 04:06:04;;;;;;;13.07;8.53;;;6.20;1.00;;;;;;5075921;28;20510;-54
2021/04/05 04:08:38;;;;;;;13.10;7.23;;;6.20;1.00;;;;;;5079357;28;20435;-54
2021/04/05 04:11:07;;;;;;;15.53;7.90;;;6.30;1.00;;;;;;5079407;28;20993;-55
2021/04/05 04:13:52;;;;;;;11.20;7.20;;;6.30;1.00;;;;;;5077548;28;20441;-54
2021/04/05 04:16:20;;;;;;;12.40;7.80;;;6.20;1.00;;;;;;5079918;28;20437;-55
2021/04/05 04:18:46;;;;;;;15.00;6.80;;;6.50;1.00;;;;;;5079014;28;20500;-56
2021/04/05 04:21:13;;;;;;;10.67;6.73;;;7.80;1.00;;;;;;5069700;28;20444;-55
2021/04/05 04:23:39;;;;;;;12.43;7.43;;;6.50;1.00;;;;;;5079186;28;20452;-55
2021/04/05 04:26:05;;;;;;;11.30;6.93;;;6.50;1.00;;;;;;5075812;28;20480;-56
2021/04/05 04:28:33;;;;;;;11.07;6.77;;;6.60;1.00;;;;;;5074582;28;20189;-54
2021/04/05 04:31:00;;;;;;;14.57;8.27;;;6.60;1.00;;;;;;5079019;28;20453;-54
2021/04/05 04:33:32;;;;;;;11.67;7.90;;;6.60;1.00;;;;;;5081212;28;20463;-54
2021/04/05 04:35:58;;;;;;;12.70;7.60;;;6.60;1.00;;;;;;5079997;28;20445;-55
2021/04/05 04:38:25;;;;;;;15.87;8.13;;;6.60;1.00;;;;;;5080009;28;20509;-55
2021/04/05 04:40:51;;;;;;;17.37;7.73;;;6.70;1.00;;;;;;5076297;28;20459;-56
2021/04/05 04:43:18;;;;;;;13.40;8.00;;;6.70;1.00;;;;;;5077089;28;20437;-54
2021/04/05 04:45:44;;;;;;;16.33;7.97;;;6.80;1.00;;;;;;5078845;28;20458;-55
2021/04/05 04:48:10;;;;;;;10.87;6.47;;;6.80;1.00;;;;;;5078571;28;20800;-55
2021/04/05 04:50:36;;;;;;;12.53;7.40;;;6.70;1.00;;;;;;5076678;28;20461;-54
2021/04/05 04:53:03;;;;;;;10.53;6.60;;;6.70;1.00;;;;;;5077844;28;20838;-56
2021/04/05 04:55:29;;;;;;;10.00;7.53;;;6.70;1.00;;;;;;5074552;28;20456;-55
2021/04/05 04:57:58;;;;;;;14.83;6.93;;;6.70;1.00;;;;;;5077556;28;21620;-56
2021/04/05 05:00:25;;;;;;;13.07;7.90;;;6.70;1.00;;;;;;5071111;28;20426;-55
2021/04/05 05:02:52;;;;;;;18.20;6.47;;;6.80;1.00;;;;;;5073291;28;20939;-56
2021/04/05 05:05:21;;;;;;;12.40;7.20;;;6.80;1.00;;;;;;5076010;28;20541;-54
2021/04/05 05:07:46;;;;;;;11.43;7.03;;;6.80;1.00;;;;;;5061012;28;20460;-55
2021/04/05 05:10:13;;;;;;;14.60;7.80;;;6.90;1.00;;;;;;5077429;28;20446;-55
2021/04/05 05:12:40;;;;;;;13.13;7.97;;;6.70;1.00;;;;;;5082870;28;20445;-55
2021/04/05 05:15:08;;;;;;;13.00;7.33;;;7.10;1.00;;;;;;5075770;28;20542;-54
2021/04/05 05:17:38;;;;;;;10.40;6.27;;;7.20;1.00;;;;;;5074920;28;20502;-56
2021/04/05 05:20:04;;;;;;;9.80;6.83;;;7.30;1.00;;;;;;5080512;28;20448;-56
2021/04/05 05:22:31;;;;;;;12.70;6.87;;;7.30;1.00;;;;;;5079769;28;20525;-55
2021/04/05 05:24:58;;;;;;;11.17;7.80;;;7.50;1.00;;;;;;5081096;28;20464;-57
2021/04/05 05:27:25;;;;;;;21.60;7.57;;;7.50;1.00;;;;;;5076656;28;20501;-54
2021/04/05 05:29:51;;;;;;;15.37;7.93;;;7.50;1.00;;;;;;5076920;28;20461;-55
2021/04/05 05:32:18;;;;;;;15.33;7.70;;;7.50;1.00;;;;;;5080571;28;20509;-55
2021/04/05 05:34:46;;;;;;;9.73;7.30;;;7.40;1.00;;;;;;5081551;28;20933;-56
2021/04/05 05:37:19;;;;;;;13.23;8.00;;;7.40;1.00;;;;;;5083892;28;20438;-56
2021/04/05 05:39:47;;;;;;;12.00;7.30;;;7.40;1.00;;;;;;5075863;28;20954;-57
2021/04/05 05:42:43;;;;;;;10.70;6.83;;;7.40;1.00;;;;;;5080449;28;20436;-56
2021/04/05 05:45:14;;;;;;;13.67;8.33;;;7.40;1.00;;;;;;5084219;28;20460;-56
2021/04/05 05:48:14;;;;;;;13.43;8.50;;;7.50;1.00;;;;;;5081149;28;20469;-55
2021/04/05 05:51:05;;;;;;;18.73;8.97;;;7.50;1.00;;;;;;5082062;28;20503;-55
2021/04/05 05:54:04;;;;;;;15.10;7.73;;;7.60;1.00;;;;;;5074737;28;20509;-56
2021/04/05 05:57:03;;;;;;;14.97;8.90;;;7.60;1.00;;;;;;5086679;28;20437;-56
2021/04/05 05:59:45;;;;;;;13.13;7.40;;;7.70;1.00;;;;;;5076417;28;20450;-54
2021/04/05 06:02:17;;;;;;;13.27;8.23;;;7.80;1.00;;;;;;5079907;28;20440;-55
2021/04/05 06:04:59;;;;;;;9.20;6.57;;;7.80;1.00;;;;;;5078103;28;20544;-54
2021/04/05 06:08:13;;;;;;;13.50;7.60;;;7.80;1.00;;;;;;5081893;28;20589;-56
2021/04/05 06:10:58;;;;;;;8.63;7.50;;;7.80;1.00;;;;;;5001981;28;20545;-56
2021/04/05 06:13:45;;;;;;;15.13;7.93;;;7.90;1.00;;;;;;5082253;28;20835;-55
2021/04/05 06:17:06;;;;;;;11.03;7.90;;;8.00;1.00;;;;;;5074919;28;20868;-57
2021/04/05 06:20:02;;;;;;;7.70;6.60;;;8.10;1.00;;;;;;5079419;28;20461;-57
2021/04/05 06:22:46;;;;;;;13.13;8.20;;;8.30;1.00;;;;;;5079516;28;20458;-55
2021/04/05 06:25:27;;;;;;;13.80;8.03;;;8.90;1.00;;;;;;5080371;28;20996;-56
2021/04/05 06:28:01;;;;;;;18.27;7.40;;;9.00;1.00;;;;;;5078983;28;20452;-55
2021/04/05 06:30:57;;;;;;;9.57;7.30;;;9.50;1.00;;;;;;5078644;28;20501;-55
2021/04/05 06:33:34;;;;;;;10.30;8.30;;;9.70;1.00;;;;;;5079722;28;20446;-54
2021/04/05 06:36:19;;;;;;;16.30;8.10;;;10.10;1.00;;;;;;5079548;28;20844;-57
2021/04/05 06:38:54;;;;;;;12.50;7.50;;;10.50;1.00;;;;;;5071770;28;20447;-57
2021/04/05 06:41:35;;;;;;;9.30;7.07;;;10.70;1.00;;;;;;5078203;28;20446;-56
2021/04/05 06:44:15;;;;;;;13.50;7.43;;;10.90;1.00;;;;;;5077459;28;20435;-57
2021/04/05 06:47:20;;;;;;;14.70;7.10;;;10.90;1.00;;;;;;5076288;28;20511;-58
2021/04/05 06:49:48;;;;;;;19.03;8.80;;;11.00;1.00;;;;;;5028500;28;20445;-58
2021/04/05 06:52:40;;;;;;;13.73;8.30;;;11.00;1.00;;;;;;5077467;28;20434;-56
2021/04/05 06:55:28;;;;;;;13.80;7.90;;;11.00;1.00;;;;;;5065464;28;20854;-56
2021/04/05 06:58:20;;;;;;;12.33;8.50;;;11.20;1.00;;;;;;5071395;28;20440;-55
2021/04/05 07:01:03;;;;;;;14.47;9.20;;;11.40;1.00;;;;;;5073228;28;20915;-55
2021/04/05 07:04:02;;;;;;;14.77;8.13;;;11.40;1.00;;;;;;5071780;28;20754;-57
2021/04/05 07:06:35;;;;;;;17.77;8.13;;;11.40;1.00;;;;;;5071107;28;20800;-57
2021/04/05 07:09:29;;;;;;;10.50;7.27;;;11.40;1.00;;;;;;5071913;28;20504;-55
2021/04/05 07:12:13;;;;;;;14.47;8.53;;;11.40;1.00;;;;;;5063709;28;20452;-56
2021/04/05 07:14:57;;;;;;;11.47;8.23;;;11.50;1.00;;;;;;5069198;28;20488;-56
2021/04/05 07:17:52;;;;;;;12.73;7.50;;;11.50;1.00;;;;;;5072989;28;20471;-55
2021/04/05 07:20:55;;;;;;;16.50;8.73;;;11.60;1.00;;;;;;5057212;28;20450;-54
2021/04/05 07:23:27;;;;;;;9.83;6.73;;;11.50;1.00;;;;;;5073827;28;20815;-57
2021/04/05 07:26:17;;;;;;;12.10;7.30;;;11.70;1.00;;;;;;5064919;28;20499;-55
2021/04/05 07:29:24;;;;;;;18.43;8.17;;;11.80;1.00;;;;;;5072795;28;20442;-56
2021/04/05 07:32:08;;;;;;;12.90;7.77;;;11.70;1.00;;;;;;5026564;28;21002;-56
2021/04/05 07:34:39;;;;;;;16.83;7.80;;;11.60;1.00;;;;;;5009290;28;21048;-57
2021/04/05 07:37:24;;;;;;;16.13;7.63;;;11.70;1.00;;;;;;5054549;28;20489;-57
2021/04/05 07:39:57;;;;;;;13.53;8.07;;;11.80;1.00;;;;;;5071987;28;20435;-56
2021/04/05 07:42:36;;;;;;;15.13;8.60;;;11.90;1.00;;;;;;5075499;28;20535;-56
2021/04/05 07:45:16;;;;;;;12.73;7.33;;;11.70;1.00;;;;;;5076513;28;21011;-56
2021/04/05 07:47:54;;;;;;;11.20;7.90;;;12.10;1.00;;;;;;5077265;28;20477;-56
2021/04/05 07:50:30;;;;;;;12.93;7.70;;;12.20;1.00;;;;;;5079006;28;20534;-55
2021/04/05 07:53:26;;;;;;;12.30;7.90;;;12.10;1.00;;;;;;5072878;28;20533;-56
2021/04/05 07:55:54;;;;;;;11.77;7.60;;;12.10;1.00;;;;;;5069284;28;20487;-57
2021/04/05 07:58:48;;;;;;;21.80;8.20;;;12.10;1.00;;;;;;5079775;28;20450;-56
2021/04/05 08:01:37;;;;;;;13.17;7.90;;;12.30;1.00;;;;;;5068653;28;20445;-57
2021/04/05 08:04:15;;;;;;;13.90;7.90;;;12.10;1.00;;;;;;5071647;28;20459;-57
2021/04/05 08:07:06;;;;;;;10.20;7.60;;;12.10;1.00;;;;;;5067306;28;20466;-58
2021/04/05 08:09:40;;;;;;;11.10;6.93;;;12.10;1.00;;;;;;5070957;28;20792;-57
2021/04/05 08:12:26;;;;;;;12.70;8.00;;;12.70;1.00;;;;;;5067333;28;20448;-57
2021/04/05 08:15:02;;;;;;;16.60;8.30;;;12.30;1.00;;;;;;5071708;28;20440;-57
2021/04/05 08:17:37;;;;;;;12.43;7.50;;;11.80;1.00;;;;;;5067757;28;20444;-57
2021/04/05 08:20:15;;;;;;;11.93;7.43;;;11.80;1.00;;;;;;5069952;28;20449;-56
2021/04/05 08:22:53;;;;;;;13.90;7.20;;;11.90;1.00;;;;;;5068534;28;20531;-57
2021/04/05 08:26:02;;;;;;;10.57;7.63;;;12.10;1.00;;;;;;5070942;28;20940;-56
2021/04/05 08:28:33;;;;;;;14.57;7.80;;;12.20;1.00;;;;;;5074031;28;20520;-55
2021/04/05 08:31:10;;;;;;;15.70;7.83;;;12.70;1.00;;;;;;5072019;28;20535;-56
2021/04/05 08:34:02;;;;;;;14.07;7.10;;;12.70;1.00;;;;;;5068742;28;20443;-56
2021/04/05 08:36:43;;;;;;;11.87;7.27;;;12.60;1.00;;;;;;5069718;28;20490;-56
2021/04/05 08:39:49;;;;;;;13.90;7.70;;;12.60;1.00;;;;;;5071293;28;20544;-57
2021/04/05 08:42:40;;;;;;;15.03;8.67;;;12.60;1.00;;;;;;5071760;28;20451;-56
2021/04/05 08:45:48;;;;;;;13.00;7.80;;;12.60;1.00;;;;;;5079094;28;20440;-57
2021/04/05 08:48:17;;;;;;;13.00;7.17;;;12.60;1.00;;;;;;5071103;28;20456;-56
2021/04/05 08:50:49;;;;;;;12.30;7.83;;;12.40;1.00;;;;;;5074450;28;20447;-56
2021/04/05 08:53:17;;;;;;;14.10;8.43;;;12.40;1.00;;;;;;5078162;28;20446;-57
2021/04/05 08:55:44;;;;;;;16.43;9.23;;;12.30;1.00;;;;;;5076821;28;20440;-57
2021/04/05 08:58:44;;;;;;;13.20;7.10;;;12.50;1.00;;;;;;5071900;28;21008;-56
2021/04/05 09:01:13;;;;;;;13.93;8.37;;;12.80;1.00;;;;;;5072411;28;20899;-57
2021/04/05 09:03:43;;;;;;;14.43;8.77;;;12.80;1.00;;;;;;5084740;28;20501;-57
2021/04/05 09:06:14;;;;;;;10.13;7.77;;;12.50;1.00;;;;;;5074787;28;20807;-57
2021/04/05 09:08:42;;;;;;;11.23;7.23;;;12.40;1.00;;;;;;5080238;28;20868;-58
2021/04/05 09:11:10;;;;;;;13.27;9.10;;;12.40;1.00;;;;;;5079389;28;20455;-57
2021/04/05 09:13:47;;;;;;;13.10;8.80;;;12.30;1.00;;;;;;5074839;28;20437;-58
2021/04/05 09:16:24;;;;;;;11.17;8.40;;;12.30;1.00;;;;;;5081653;28;20440;-57
2021/04/05 09:18:55;;;;;;;10.90;7.73;;;12.40;1.00;;;;;;5077455;28;20447;-60
2021/04/05 09:21:44;;;;;;;12.60;8.10;;;12.90;1.00;;;;;;5086073;28;20427;-57
2021/04/05 09:24:40;;;;;;;15.33;8.37;;;12.80;1.00;;;;;;5081554;28;20514;-58
2021/04/05 09:27:31;;;;;;;13.03;8.27;;;12.80;1.00;;;;;;5081064;28;20476;-56
2021/04/05 09:30:06;;;;;;;12.60;8.57;;;12.80;1.00;;;;;;5085425;28;20449;-57
2021/04/05 09:32:59;;;;;;;14.27;8.57;;;12.70;1.00;;;;;;5074887;28;20768;-57
2021/04/05 09:35:51;;;;;;;16.03;8.47;;;12.40;1.00;;;;;;5081084;28;20442;-56
2021/04/05 09:38:43;;;;;;;12.40;8.60;;;12.50;1.00;;;;;;5071860;28;20909;-56
2021/04/05 09:41:28;;;;;;;13.23;8.17;;;12.60;1.00;;;;;;5070974;28;20443;-57
2021/04/05 09:44:27;;;;;;;15.07;8.77;;;11.90;1.00;;;;;;5073102;28;20456;-57
2021/04/05 09:47:23;;;;;;;15.27;9.00;;;12.60;1.00;;;;;;5091623;28;20506;-56
2021/04/05 09:50:25;;;;;;;13.77;9.70;;;12.70;1.00;;;;;;5085598;28;20447;-56
2021/04/05 09:53:15;;;;;;;15.83;9.50;;;12.10;1.00;;;;;;5087278;28;20444;-54
2021/04/05 09:55:47;;;;;;;16.07;9.60;;;12.00;1.00;;;;;;5076057;28;20510;-56
2021/04/05 09:58:29;;;;;;;15.30;9.23;;;11.90;1.00;;;;;;5078990;28;20487;-56
2021/04/05 10:01:03;;;;;;;13.90;9.87;;;11.50;1.00;;;;;;5090764;28;20434;-57
2021/04/05 10:03:29;;;;;;;13.83;9.63;;;11.40;1.00;;;;;;5079408;28;20439;-57
2021/04/05 10:05:57;;;;;;;14.63;9.30;;;10.80;1.00;;;;;;5080016;28;20558;-57
2021/04/05 10:08:26;;;;;;;14.23;9.00;;;11.50;1.00;;;;;;5088074;28;20432;-57
2021/04/05 10:10:54;;;;;;;15.60;10.17;;;11.50;1.00;;;;;;5072814;28;20428;-57
2021/04/05 10:13:26;;;;;;;13.03;9.40;;;11.60;1.00;;;;;;5080547;28;20440;-56
2021/04/05 10:15:53;;;;;;;14.07;9.30;;;11.60;1.00;;;;;;5088749;28;20451;-56
2021/04/05 10:18:19;;;;;;;14.17;9.70;;;11.70;1.00;;;;;;5077509;28;20433;-56
2021/04/05 10:20:51;;;;;;;13.80;9.23;;;11.90;1.00;;;;;;5072558;28;20581;-57
2021/04/05 10:23:21;;;;;;;15.40;9.33;;;11.80;1.00;;;;;;5072698;28;20990;-57
2021/04/05 10:25:53;;;;;;;11.20;8.97;;;11.80;1.00;;;;;;5080263;28;20485;-57
2021/04/05 10:28:19;;;;;;;16.03;10.60;;;11.70;1.00;;;;;;5078251;28;20787;-56
2021/04/05 10:30:52;;;;;;;20.33;10.37;;;11.30;1.00;;;;;;5067913;28;20445;-57
2021/04/05 10:33:25;;;;;;;16.23;9.50;;;11.20;1.00;;;;;;5076719;28;20449;-56
2021/04/05 10:35:55;;;;;;;15.23;9.73;;;11.30;1.00;;;;;;5080668;28;20444;-58
2021/04/05 10:38:22;;;;;;;13.83;9.60;;;11.30;1.00;;;;;;5084418;28;20440;-56
2021/04/05 10:40:50;;;;;;;19.43;9.17;;;11.30;1.00;;;;;;5087776;28;20440;-56
2021/04/05 10:43:22;;;;;;;13.93;9.40;;;11.30;1.00;;;;;;5080645;28;20439;-56
2021/04/05 10:45:58;;;;;;;14.07;9.43;;;11.00;1.00;;;;;;5071518;28;20961;-57
2021/04/05 10:48:48;;;;;;;16.03;10.73;;;10.70;1.00;;;;;;5082305;28;20978;-55
2021/04/05 10:51:25;;;;;;;16.20;10.40;;;10.40;1.00;;;;;;5077749;28;20435;-57
2021/04/05 10:54:32;;;;;;;18.17;10.47;;;10.10;1.00;;;;;;5081631;28;20429;-54
2021/04/05 10:57:02;;;;;;;16.50;10.27;;;10.20;1.00;;;;;;5050618;28;20483;-57
2021/04/05 10:59:41;;;;;;;14.40;9.97;;;10.20;1.00;;;;;;5070410;28;20476;-56
2021/04/05 11:02:23;;;;;;;16.07;9.30;;;;;;;;;;5072301;28;20501;-57
2021/04/05 11:04:56;;;;;;;17.00;10.20;;;10.00;1.00;;;;;;5081487;28;20435;-56
2021/04/05 11:07:24;;;;;;;16.77;10.90;;;9.90;1.00;;;;;;5070132;28;20454;-57
2021/04/05 11:09:54;;;;;;;17.80;10.67;;;9.70;1.00;;;;;;5077231;28;20447;-57
2021/04/05 11:12:22;;;;;;;14.20;10.10;;;9.70;1.00;;;;;;5080058;28;20432;-56
2021/04/05 11:14:50;;;;;;;19.13;11.07;;;9.60;1.00;;;;;;5083623;28;20444;-56
2021/04/05 11:17:20;;;;;;;13.73;9.67;;;9.50;1.00;;;;;;5079902;28;20456;-56
2021/04/05 11:19:52;;;;;;;13.10;10.97;;;9.50;1.00;;;;;;5081860;28;20478;-56
2021/04/05 11:22:22;;;;;;;18.33;10.90;;;9.50;1.00;;;;;;5087465;28;20434;-56
2021/04/05 11:25:03;;;;;;;17.60;9.63;;;9.30;1.00;;;;;;5085416;28;20767;-56
2021/04/05 11:27:31;;;;;;;16.37;11.03;;;9.10;1.00;;;;;;5087006;28;20472;-56
2021/04/05 11:30:02;;;;;;;17.47;11.77;;;9.10;1.00;;;;;;5072547;28;20602;-56
2021/04/05 11:32:29;;;;;;;19.50;13.30;;;9.90;1.00;;;;;;5079139;28;20847;-56
2021/04/05 11:34:59;;;;;;;19.13;11.83;;;8.80;1.00;;;;;;5075552;28;20501;-56
2021/04/05 11:37:30;;;;;;;16.50;11.30;;;8.80;1.00;;;;;;5071019;28;20953;-56
2021/04/05 11:40:02;;;;;;;19.40;12.13;;;8.70;1.00;;;;;;5068593;28;20927;-55
2021/04/05 11:42:36;;;;;;;16.67;13.23;;;8.80;1.00;;;;;;5083284;28;20519;-56
2021/04/05 11:45:03;;;;;;;19.20;10.27;;;8.70;1.00;;;;;;5078620;28;21003;-54
2021/04/05 11:47:36;;;;;;;16.53;10.87;;;8.60;1.00;;;;;;5073293;28;20462;-54
2021/04/05 11:50:11;;;;;;;16.57;10.93;;;8.60;1.00;;;;;;5074536;28;20540;-56
2021/04/05 11:52:53;;;;;;;14.70;9.90;;;8.70;1.00;;;;;;5075682;28;20436;-55
2021/04/05 11:55:29;;;;;;;17.43;10.83;;;8.80;1.00;;;;;;5080802;28;20440;-57
2021/04/05 11:58:11;;;;;;;18.27;11.20;;;9.00;1.00;;;;;;5081384;28;20442;-57
2021/04/05 12:00:53;;;;;;;17.67;10.70;;;9.10;1.00;;;;;;5072901;28;20491;-56
2021/04/05 12:03:39;;;;;;;14.37;9.43;;;8.90;1.00;;;;;;5069448;28;20480;-55
2021/04/05 12:06:20;;;;;;;14.43;8.03;;;8.70;1.00;;;;;;5075909;28;20460;-57
2021/04/05 12:08:59;;;;;;;14.77;9.10;;;8.60;1.00;;;;;;5074612;28;20791;-57
2021/04/05 12:11:31;;;;;;;12.57;8.37;;;8.50;1.00;;;;;;5066180;28;20464;-57
2021/04/05 12:14:08;;;;;;;14.17;9.43;;;8.40;1.00;;;;;;5078522;28;20451;-58
2021/04/05 12:16:36;;;;;;;6.53;5.30;;;8.40;1.00;;;;;;5077392;28;20443;-58
2021/04/05 12:19:03;;;;;;;8.47;5.50;;;7.70;1.00;;;;;;5084453;28;20869;-57
2021/04/05 12:21:31;;;;;;;3.90;2.80;;;6.90;99.90;;;;;;5069596;28;20441;-58
2021/04/05 12:24:00;;;;;;;2.83;1.80;;;6.60;99.90;;;;;;5077706;28;20775;-58
2021/04/05 12:26:28;;;;;;;2.57;1.23;;;6.40;99.90;;;;;;5070318;28;20493;-56
2021/04/05 12:29:02;;;;;;;2.00;0.97;;;6.10;99.90;;;;;;5070045;28;20442;-56
2021/04/05 12:31:29;;;;;;;0.70;0.70;;;5.60;99.90;;;;;;5067630;28;20518;-57
2021/04/05 12:33:58;;;;;;;1.10;0.80;;;5.70;99.90;;;;;;5049425;28;20433;-56
2021/04/05 12:36:35;;;;;;;1.30;1.13;;;5.60;99.90;;;;;;5071236;28;20441;-57
2021/04/05 12:39:03;;;;;;;0.60;0.60;;;5.70;99.90;;;;;;5069810;28;20452;-56
2021/04/05 12:41:35;;;;;;;0.70;0.50;;;5.60;99.90;;;;;;5070456;28;20437;-58
2021/04/05 12:44:06;;;;;;;1.70;0.70;;;5.50;99.90;;;;;;5082533;28;20433;-58
2021/04/05 12:46:34;;;;;;;1.53;0.80;;;5.40;99.90;;;;;;5068732;28;20467;-56
2021/04/05 12:49:00;;;;;;;0.87;0.87;;;5.30;99.90;;;;;;5077210;28;20469;-57
2021/04/05 12:51:28;;;;;;;1.60;1.20;;;5.40;99.90;;;;;;5070003;28;20430;-57
2021/04/05 12:54:04;;;;;;;1.67;0.90;;;5.60;99.90;;;;;;5070148;28;20478;-56
2021/04/05 12:56:31;;;;;;;1.23;1.07;;;5.50;99.90;;;;;;5071163;28;20524;-56
2021/04/05 12:58:57;;;;;;;1.50;1.40;;;5.60;99.90;;;;;;5085174;28;20477;-57
2021/04/05 13:01:36;;;;;;;1.90;1.27;;;5.80;99.90;;;;;;5073939;28;20469;-56
2021/04/05 13:04:03;;;;;;;1.20;1.10;;;5.60;99.90;;;;;;5068183;28;20499;-56
2021/04/05 13:06:40;;;;;;;2.03;1.10;;;5.60;99.90;;;;;;5067996;28;20495;-57
2021/04/05 13:09:19;;;;;;;1.70;1.13;;;5.60;99.90;;;;;;5076239;28;21002;-58
2021/04/05 13:11:54;;;;;;;1.90;1.47;;;5.70;99.90;;;;;;5069581;28;20509;-57
2021/04/05 13:14:23;;;;;;;0.80;0.77;;;5.70;99.90;;;;;;5069579;28;20429;-56
2021/04/05 13:16:58;;;;;;;2.30;1.00;;;5.70;99.90;;;;;;5069465;28;20794;-56
2021/04/05 13:19:33;;;;;;;0.97;0.77;;;5.70;99.90;;;;;;5069960;28;20436;-57
2021/04/05 13:22:00;;;;;;;1.43;0.70;;;5.90;99.90;;;;;;5069033;28;20437;-56
2021/04/05 13:24:32;;;;;;;1.03;0.93;;;6.20;99.90;;;;;;5063383;28;20500;-56
2021/04/05 13:27:00;;;;;;;1.17;0.80;;;6.50;99.90;;;;;;5072125;28;20480;-57
2021/04/05 13:29:32;;;;;;;0.80;0.80;;;6.60;99.90;;;;;;5073553;28;20446;-57
2021/04/05 13:32:02;;;;;;;2.00;0.70;;;6.90;99.90;;;;;;5074081;28;20943;-62